Arrowsic, Maine
Current Conditions -  °F | °C
As of 4:53 PM on Wednesday 26 Nov 2014 (Local Time) from KIWI Reporting Station
Light Snow Light Snow  
Wind Chill: 29°   Ceiling: 600
Heat Index: 33°   Visibility: 1.2mi
Dew Point: 32°   Wind: 5mph
Humidity: 96%   Direction: NA
Pressure: 30.05"   Gusts: NA
Location:  43.8797°N, 69.8408°W
Report Text: KIWI 262153Z AUTO VRB04KT 1 1/4SM -SN BR BKN006 OVC010 01/00 A3005 RMK AO2 PRESFR SLP176 P0007 T00060000
Loading
Personal Weather Stations






























Interactive Weather Map New forecast layout! Learn more

10-Day Weather Forecast

Advertisements
Track Severe Weather on mobile